sensor_id;sensor_type;location;lat;lon;timestamp;pressure;altitude;pressure_sealevel;temperature;humidity
34124;BME280;13153;52.316;21.166;2023-01-31T00:01:38;99068.59;;;7.25;62.85
34124;BME280;13153;52.316;21.166;2023-01-31T00:04:08;99062.56;;;7.29;62.83
34124;BME280;13153;52.316;21.166;2023-01-31T00:06:40;99078.25;;;7.29;62.69
34124;BME280;13153;52.316;21.166;2023-01-31T00:09:08;99073.00;;;7.27;62.19
34124;BME280;13153;52.316;21.166;2023-01-31T00:11:35;99065.16;;;7.27;62.78
34124;BME280;13153;52.316;21.166;2023-01-31T00:14:02;99073.03;;;7.29;62.82
34124;BME280;13153;52.316;21.166;2023-01-31T00:16:29;99071.22;;;7.26;62.90
34124;BME280;13153;52.316;21.166;2023-01-31T00:18:55;99086.00;;;7.24;63.17
34124;BME280;13153;52.316;21.166;2023-01-31T00:21:24;99084.41;;;7.33;62.64
34124;BME280;13153;52.316;21.166;2023-01-31T00:23:52;99080.88;;;7.29;62.36
34124;BME280;13153;52.316;21.166;2023-01-31T00:26:22;99077.44;;;7.32;63.05
34124;BME280;13153;52.316;21.166;2023-01-31T00:28:50;99093.03;;;7.27;62.92
34124;BME280;13153;52.316;21.166;2023-01-31T00:31:19;99087.03;;;7.33;62.60
34124;BME280;13153;52.316;21.166;2023-01-31T00:33:47;99093.06;;;7.28;62.59
34124;BME280;13153;52.316;21.166;2023-01-31T00:36:17;99097.41;;;7.28;62.64
34124;BME280;13153;52.316;21.166;2023-01-31T00:38:44;99096.53;;;7.27;62.89
34124;BME280;13153;52.316;21.166;2023-01-31T00:41:12;99118.22;;;7.22;62.98
34124;BME280;13153;52.316;21.166;2023-01-31T00:43:38;99106.94;;;7.24;62.74
34124;BME280;13153;52.316;21.166;2023-01-31T00:46:05;99109.59;;;7.26;63.03
34124;BME280;13153;52.316;21.166;2023-01-31T00:48:32;99113.09;;;7.26;62.61
34124;BME280;13153;52.316;21.166;2023-01-31T00:50:58;99118.31;;;7.26;62.90
34124;BME280;13153;52.316;21.166;2023-01-31T00:53:24;99119.25;;;7.30;63.25
34124;BME280;13153;52.316;21.166;2023-01-31T00:56:00;99117.47;;;7.27;62.97
34124;BME280;13153;52.316;21.166;2023-01-31T00:58:27;99125.31;;;7.27;63.01
34124;BME280;13153;52.316;21.166;2023-01-31T01:00:53;99118.44;;;7.33;63.21
34124;BME280;13153;52.316;21.166;2023-01-31T01:03:18;99121.06;;;7.33;63.14
34124;BME280;13153;52.316;21.166;2023-01-31T01:05:44;99130.63;;;7.32;63.50
34124;BME280;13153;52.316;21.166;2023-01-31T01:08:10;99134.13;;;7.33;63.23
34124;BME280;13153;52.316;21.166;2023-01-31T01:10:36;99132.44;;;7.35;62.91
34124;BME280;13153;52.316;21.166;2023-01-31T01:13:02;99141.13;;;7.34;62.87
34124;BME280;13153;52.316;21.166;2023-01-31T01:15:30;99140.34;;;7.38;62.66
34124;BME280;13153;52.316;21.166;2023-01-31T01:17:56;99142.03;;;7.36;62.80
34124;BME280;13153;52.316;21.166;2023-01-31T01:20:22;99146.34;;;7.34;63.24
34124;BME280;13153;52.316;21.166;2023-01-31T01:22:48;99138.53;;;7.35;62.71
34124;BME280;13153;52.316;21.166;2023-01-31T01:25:14;99139.38;;;7.34;63.56
34124;BME280;13153;52.316;21.166;2023-01-31T01:27:40;99148.19;;;7.38;62.92
34124;BME280;13153;52.316;21.166;2023-01-31T01:30:06;99143.00;;;7.41;63.17
34124;BME280;13153;52.316;21.166;2023-01-31T01:32:32;99144.75;;;7.40;62.90
34124;BME280;13153;52.316;21.166;2023-01-31T01:34:58;99149.06;;;7.38;62.94
34124;BME280;13153;52.316;21.166;2023-01-31T01:37:24;99152.59;;;7.40;62.90
34124;BME280;13153;52.316;21.166;2023-01-31T01:39:50;99152.59;;;7.40;62.79
34124;BME280;13153;52.316;21.166;2023-01-31T01:42:22;99153.47;;;7.41;62.75
34124;BME280;13153;52.316;21.166;2023-01-31T01:44:59;99163.91;;;7.39;63.28
34124;BME280;13153;52.316;21.166;2023-01-31T01:47:52;99164.78;;;7.40;62.77
34124;BME280;13153;52.316;21.166;2023-01-31T01:53:12;99178.84;;;7.45;63.20
34124;BME280;13153;52.316;21.166;2023-01-31T01:56:00;99171.00;;;7.45;63.34
34124;BME280;13153;52.316;21.166;2023-01-31T01:58:42;99168.34;;;7.43;62.87
34124;BME280;13153;52.316;21.166;2023-01-31T02:01:10;99178.94;;;7.49;62.31
34124;BME280;13153;52.316;21.166;2023-01-31T02:03:40;99186.81;;;7.51;62.62
34124;BME280;13153;52.316;21.166;2023-01-31T02:06:06;99191.16;;;7.52;62.29
34124;BME280;13153;52.316;21.166;2023-01-31T02:08:35;99190.28;;;7.50;62.39
34124;BME280;13153;52.316;21.166;2023-01-31T02:11:25;99204.28;;;7.53;62.33
34124;BME280;13153;52.316;21.166;2023-01-31T02:14:00;99198.16;;;7.50;62.25
34124;BME280;13153;52.316;21.166;2023-01-31T02:16:27;99200.75;;;7.50;62.41
34124;BME280;13153;52.316;21.166;2023-01-31T02:18:55;99219.94;;;7.49;62.62
34124;BME280;13153;52.316;21.166;2023-01-31T02:22:09;99223.47;;;7.51;62.68
34124;BME280;13153;52.316;21.166;2023-01-31T02:28:18;99237.41;;;7.51;62.70
34124;BME280;13153;52.316;21.166;2023-01-31T02:31:33;99239.22;;;7.55;62.43
34124;BME280;13153;52.316;21.166;2023-01-31T02:36:50;99235.75;;;7.56;62.55
34124;BME280;13153;52.316;21.166;2023-01-31T02:42:22;99242.66;;;7.53;62.20
34124;BME280;13153;52.316;21.166;2023-01-31T02:45:17;99253.22;;;7.57;62.63
34124;BME280;13153;52.316;21.166;2023-01-31T02:48:32;99260.22;;;7.58;62.36
34124;BME280;13153;52.316;21.166;2023-01-31T02:51:22;99265.50;;;7.60;61.94
34124;BME280;13153;52.316;21.166;2023-01-31T02:56:33;99267.22;;;7.59;62.41
34124;BME280;13153;52.316;21.166;2023-01-31T02:59:07;99272.47;;;7.59;62.28
34124;BME280;13153;52.316;21.166;2023-01-31T03:01:43;99281.13;;;7.57;62.54
34124;BME280;13153;52.316;21.166;2023-01-31T03:04:13;99276.81;;;7.59;62.24
34124;BME280;13153;52.316;21.166;2023-01-31T03:10:15;99295.94;;;7.56;62.58
34124;BME280;13153;52.316;21.166;2023-01-31T03:16:01;99302.91;;;7.56;62.20
34124;BME280;13153;52.316;21.166;2023-01-31T03:19:31;99314.34;;;7.59;62.57
34124;BME280;13153;52.316;21.166;2023-01-31T03:22:06;99311.75;;;7.61;62.00
34124;BME280;13153;52.316;21.166;2023-01-31T03:24:35;99319.56;;;7.59;61.73
34124;BME280;13153;52.316;21.166;2023-01-31T03:27:02;99320.38;;;7.57;62.21
34124;BME280;13153;52.316;21.166;2023-01-31T03:29:34;99322.22;;;7.61;61.62
34124;BME280;13153;52.316;21.166;2023-01-31T03:32:19;99329.22;;;7.62;61.56
34124;BME280;13153;52.316;21.166;2023-01-31T03:34:50;99331.00;;;7.63;61.98
34124;BME280;13153;52.316;21.166;2023-01-31T03:37:49;99335.44;;;7.67;62.21
34124;BME280;13153;52.316;21.166;2023-01-31T03:40:29;99344.13;;;7.65;61.51
34124;BME280;13153;52.316;21.166;2023-01-31T03:43:05;99343.25;;;7.66;61.57
34124;BME280;13153;52.316;21.166;2023-01-31T03:45:57;99341.47;;;7.63;61.52
34124;BME280;13153;52.316;21.166;2023-01-31T03:48:34;99340.63;;;7.64;60.93
34124;BME280;13153;52.316;21.166;2023-01-31T03:51:06;99339.75;;;7.65;61.11
34124;BME280;13153;52.316;21.166;2023-01-31T03:54:05;99346.84;;;7.69;61.45
34124;BME280;13153;52.316;21.166;2023-01-31T03:57:03;99348.53;;;7.67;60.42
34124;BME280;13153;52.316;21.166;2023-01-31T03:59:37;99345.84;;;7.64;61.26
34124;BME280;13153;52.316;21.166;2023-01-31T04:02:09;99345.06;;;7.68;60.38
34124;BME280;13153;52.316;21.166;2023-01-31T04:04:49;99351.19;;;7.69;60.80
34124;BME280;13153;52.316;21.166;2023-01-31T04:07:16;99348.59;;;7.70;60.23
34124;BME280;13153;52.316;21.166;2023-01-31T04:09:42;99362.59;;;7.72;60.69
34124;BME280;13153;52.316;21.166;2023-01-31T04:12:13;99361.72;;;7.72;59.75
34124;BME280;13153;52.316;21.166;2023-01-31T04:14:41;99359.09;;;7.72;60.29
34124;BME280;13153;52.316;21.166;2023-01-31T04:17:07;99360.00;;;7.72;59.93
34124;BME280;13153;52.316;21.166;2023-01-31T04:19:32;99364.34;;;7.72;59.54
34124;BME280;13153;52.316;21.166;2023-01-31T04:21:58;99365.22;;;7.72;60.31
34124;BME280;13153;52.316;21.166;2023-01-31T04:24:24;99373.78;;;7.65;59.79
34124;BME280;13153;52.316;21.166;2023-01-31T04:26:50;99378.19;;;7.66;59.89
34124;BME280;13153;52.316;21.166;2023-01-31T04:29:16;99375.69;;;7.72;59.98
34124;BME280;13153;52.316;21.166;2023-01-31T04:31:42;99380.03;;;7.72;59.84
34124;BME280;13153;52.316;21.166;2023-01-31T04:34:08;99394.88;;;7.71;59.46
34124;BME280;13153;52.316;21.166;2023-01-31T04:36:34;99403.66;;;7.73;59.38
34124;BME280;13153;52.316;21.166;2023-01-31T04:39:00;99394.84;;;7.70;59.49
34124;BME280;13153;52.316;21.166;2023-01-31T04:41:27;99399.25;;;7.72;59.53
34124;BME280;13153;52.316;21.166;2023-01-31T04:43:52;99401.88;;;7.72;59.49
34124;BME280;13153;52.316;21.166;2023-01-31T04:46:18;99400.97;;;7.70;59.25
34124;BME280;13153;52.316;21.166;2023-01-31T04:48:44;99397.34;;;7.65;59.14
34124;BME280;13153;52.316;21.166;2023-01-31T04:51:10;99411.91;;;7.52;59.51
34124;BME280;13153;52.316;21.166;2023-01-31T04:53:36;99420.50;;;7.45;59.55
34124;BME280;13153;52.316;21.166;2023-01-31T04:56:03;99417.91;;;7.47;59.63
34124;BME280;13153;52.316;21.166;2023-01-31T04:58:30;99419.56;;;7.43;59.23
34124;BME280;13153;52.316;21.166;2023-01-31T05:00:56;99421.25;;;7.41;59.47
34124;BME280;13153;52.316;21.166;2023-01-31T05:03:22;99417.69;;;7.38;59.42
34124;BME280;13153;52.316;21.166;2023-01-31T05:05:49;99424.63;;;7.36;59.56
34124;BME280;13153;52.316;21.166;2023-01-31T05:08:15;99441.09;;;7.32;59.46
34124;BME280;13153;52.316;21.166;2023-01-31T05:10:42;99425.25;;;7.25;59.72
34124;BME280;13153;52.316;21.166;2023-01-31T05:13:09;99439.09;;;7.21;59.16
34124;BME280;13153;52.316;21.166;2023-01-31T05:15:35;99443.38;;;7.18;59.69
34124;BME280;13153;52.316;21.166;2023-01-31T05:18:02;99439.81;;;7.16;59.68
34124;BME280;13153;52.316;21.166;2023-01-31T05:20:35;99454.69;;;7.17;59.48
34124;BME280;13153;52.316;21.166;2023-01-31T05:23:04;99460.63;;;7.11;59.86
34124;BME280;13153;52.316;21.166;2023-01-31T05:25:30;99471.06;;;7.10;60.26
34124;BME280;13153;52.316;21.166;2023-01-31T05:27:55;99473.72;;;7.11;60.33
34124;BME280;13153;52.316;21.166;2023-01-31T05:30:22;99481.56;;;7.11;59.65
34124;BME280;13153;52.316;21.166;2023-01-31T05:32:50;99481.59;;;7.13;59.67
34124;BME280;13153;52.316;21.166;2023-01-31T05:35:16;99491.22;;;7.14;59.81
34124;BME280;13153;52.316;21.166;2023-01-31T05:37:42;99488.53;;;7.11;59.39
34124;BME280;13153;52.316;21.166;2023-01-31T05:40:16;99497.28;;;7.13;59.34
34124;BME280;13153;52.316;21.166;2023-01-31T05:42:42;99511.25;;;7.13;59.84
34124;BME280;13153;52.316;21.166;2023-01-31T05:45:10;99513.84;;;7.12;59.83
34124;BME280;13153;52.316;21.166;2023-01-31T05:47:36;99510.25;;;7.08;59.45
34124;BME280;13153;52.316;21.166;2023-01-31T05:50:03;99510.28;;;7.10;59.42
34124;BME280;13153;52.316;21.166;2023-01-31T05:52:29;99518.09;;;7.08;59.73
34124;BME280;13153;52.316;21.166;2023-01-31T05:54:55;99523.41;;;7.11;59.25
34124;BME280;13153;52.316;21.166;2023-01-31T05:57:21;99531.22;;;7.10;59.33
34124;BME280;13153;52.316;21.166;2023-01-31T05:59:47;99529.56;;;7.13;59.23
34124;BME280;13153;52.316;21.166;2023-01-31T06:02:12;99532.25;;;7.16;58.94
34124;BME280;13153;52.316;21.166;2023-01-31T06:04:38;99526.91;;;7.12;59.31
34124;BME280;13153;52.316;21.166;2023-01-31T06:07:04;99535.63;;;7.12;58.78
34124;BME280;13153;52.316;21.166;2023-01-31T06:09:30;99536.56;;;7.14;58.65
34124;BME280;13153;52.316;21.166;2023-01-31T06:11:56;99540.78;;;7.09;58.68
34124;BME280;13153;52.316;21.166;2023-01-31T06:14:22;99536.53;;;7.13;58.96
34124;BME280;13153;52.316;21.166;2023-01-31T06:16:48;99553.09;;;7.13;58.51
34124;BME280;13153;52.316;21.166;2023-01-31T06:19:13;99558.34;;;7.13;58.89
34124;BME280;13153;52.316;21.166;2023-01-31T06:21:40;99565.34;;;7.14;58.81
34124;BME280;13153;52.316;21.166;2023-01-31T06:24:06;99568.81;;;7.13;58.35
34124;BME280;13153;52.316;21.166;2023-01-31T06:26:32;99567.69;;;7.05;58.37
34124;BME280;13153;52.316;21.166;2023-01-31T06:28:58;99581.03;;;7.14;58.35
34124;BME280;13153;52.316;21.166;2023-01-31T06:31:24;99586.25;;;7.14;58.46
34124;BME280;13153;52.316;21.166;2023-01-31T06:33:50;99586.31;;;7.16;58.03
34124;BME280;13153;52.316;21.166;2023-01-31T06:36:16;99588.22;;;7.21;58.36
34124;BME280;13153;52.316;21.166;2023-01-31T06:38:42;99594.41;;;7.25;57.92
34124;BME280;13153;52.316;21.166;2023-01-31T06:41:07;99598.88;;;7.29;58.35
34124;BME280;13153;52.316;21.166;2023-01-31T06:43:33;99596.31;;;7.31;57.91
34124;BME280;13153;52.316;21.166;2023-01-31T06:45:59;99611.16;;;7.32;57.98
34124;BME280;13153;52.316;21.166;2023-01-31T06:48:25;99615.53;;;7.33;57.50
34124;BME280;13153;52.316;21.166;2023-01-31T06:50:51;99616.56;;;7.38;57.71
34124;BME280;13153;52.316;21.166;2023-01-31T06:53:16;99616.63;;;7.41;58.19
34124;BME280;13153;52.316;21.166;2023-01-31T06:55:42;99623.72;;;7.45;57.74
34124;BME280;13153;52.316;21.166;2023-01-31T06:58:08;99620.34;;;7.49;57.92
34124;BME280;13153;52.316;21.166;2023-01-31T07:00:33;99625.63;;;7.52;57.56
34124;BME280;13153;52.316;21.166;2023-01-31T07:02:59;99617.91;;;7.56;57.90
34124;BME280;13153;52.316;21.166;2023-01-31T07:05:25;99627.47;;;7.56;57.08
34124;BME280;13153;52.316;21.166;2023-01-31T07:07:51;99637.09;;;7.57;56.73
34124;BME280;13153;52.316;21.166;2023-01-31T07:10:17;99634.66;;;7.63;57.10
34124;BME280;13153;52.316;21.166;2023-01-31T07:12:43;99641.69;;;7.66;57.12
34124;BME280;13153;52.316;21.166;2023-01-31T07:15:09;99643.44;;;7.65;56.80
34124;BME280;13153;52.316;21.166;2023-01-31T07:17:36;99652.19;;;7.66;57.04
34124;BME280;13153;52.316;21.166;2023-01-31T07:20:02;99649.63;;;7.69;56.99
34124;BME280;13153;52.316;21.166;2023-01-31T07:22:28;99661.75;;;7.65;57.01
34124;BME280;13153;52.316;21.166;2023-01-31T07:24:54;99664.53;;;7.71;57.21
34124;BME280;13153;52.316;21.166;2023-01-31T07:27:20;99668.84;;;7.69;56.42
34124;BME280;13153;52.316;21.166;2023-01-31T07:29:45;99670.63;;;7.70;56.66
34124;BME280;13153;52.316;21.166;2023-01-31T07:32:11;99679.38;;;7.71;56.92
34124;BME280;13153;52.316;21.166;2023-01-31T07:34:37;99666.28;;;7.71;56.62
34124;BME280;13153;52.316;21.166;2023-01-31T07:37:03;99682.91;;;7.73;57.08
34124;BME280;13153;52.316;21.166;2023-01-31T07:39:29;99679.53;;;7.77;57.19
34124;BME280;13153;52.316;21.166;2023-01-31T07:41:55;99679.44;;;7.74;56.74
34124;BME280;13153;52.316;21.166;2023-01-31T07:44:20;99689.00;;;7.72;56.98
34124;BME280;13153;52.316;21.166;2023-01-31T07:46:46;99690.81;;;7.74;56.71
34124;BME280;13153;52.316;21.166;2023-01-31T07:49:13;99690.97;;;7.80;56.49
34124;BME280;13153;52.316;21.166;2023-01-31T07:51:39;99688.47;;;7.85;56.27
34124;BME280;13153;52.316;21.166;2023-01-31T07:54:10;99696.41;;;7.88;56.04
34124;BME280;13153;52.316;21.166;2023-01-31T07:56:36;99700.69;;;7.84;56.22
34124;BME280;13153;52.316;21.166;2023-01-31T07:59:02;99701.81;;;7.94;55.73
34124;BME280;13153;52.316;21.166;2023-01-31T08:01:28;99713.38;;;8.02;55.35
34124;BME280;13153;52.316;21.166;2023-01-31T08:04:15;99714.28;;;8.04;55.62
34124;BME280;13153;52.316;21.166;2023-01-31T08:06:44;99723.13;;;8.08;55.35
34124;BME280;13153;52.316;21.166;2023-01-31T08:09:10;99726.50;;;8.04;54.97
34124;BME280;13153;52.316;21.166;2023-01-31T08:11:36;99735.34;;;8.09;55.27
34124;BME280;13153;52.316;21.166;2023-01-31T08:14:02;99735.41;;;8.12;54.53
34124;BME280;13153;52.316;21.166;2023-01-31T08:16:28;99743.41;;;8.16;54.22
34124;BME280;13153;52.316;21.166;2023-01-31T08:18:56;99749.56;;;8.18;54.94
34124;BME280;13153;52.316;21.166;2023-01-31T08:21:22;99758.22;;;8.16;54.31
34124;BME280;13153;52.316;21.166;2023-01-31T08:23:48;99753.00;;;8.16;54.48
34124;BME280;13153;52.316;21.166;2023-01-31T08:26:18;99758.22;;;8.16;54.67
34124;BME280;13153;52.316;21.166;2023-01-31T08:28:46;99751.31;;;8.18;54.85
34124;BME280;13153;52.316;21.166;2023-01-31T08:31:19;99762.88;;;8.26;54.97
34124;BME280;13153;52.316;21.166;2023-01-31T08:33:45;99760.16;;;8.23;54.32
34124;BME280;13153;52.316;21.166;2023-01-31T08:36:21;99770.81;;;8.29;53.94
34124;BME280;13153;52.316;21.166;2023-01-31T08:38:48;99765.75;;;8.35;53.84
34124;BME280;13153;52.316;21.166;2023-01-31T08:41:15;99774.75;;;8.45;54.18
34124;BME280;13153;52.316;21.166;2023-01-31T08:43:43;99776.47;;;8.44;53.48
34124;BME280;13153;52.316;21.166;2023-01-31T08:46:10;99775.66;;;8.47;52.74
34124;BME280;13153;52.316;21.166;2023-01-31T08:48:37;99774.75;;;8.45;53.05
34124;BME280;13153;52.316;21.166;2023-01-31T08:51:06;99780.94;;;8.48;53.30
34124;BME280;13153;52.316;21.166;2023-01-31T08:53:33;99781.75;;;8.46;52.44
34124;BME280;13153;52.316;21.166;2023-01-31T08:56:05;99786.34;;;8.54;52.73
34124;BME280;13153;52.316;21.166;2023-01-31T08:58:33;99780.25;;;8.55;52.96
34124;BME280;13153;52.316;21.166;2023-01-31T09:01:28;99798.81;;;8.63;52.87
34124;BME280;13153;52.316;21.166;2023-01-31T09:03:54;99791.63;;;8.56;52.28
34124;BME280;13153;52.316;21.166;2023-01-31T09:06:23;99786.31;;;8.53;52.33
34124;BME280;13153;52.316;21.166;2023-01-31T09:08:51;99790.81;;;8.58;52.14
34124;BME280;13153;52.316;21.166;2023-01-31T09:11:17;99792.75;;;8.67;52.45
34124;BME280;13153;52.316;21.166;2023-01-31T09:13:45;99795.28;;;8.63;52.42
34124;BME280;13153;52.316;21.166;2023-01-31T09:16:13;99802.47;;;8.71;52.21
34124;BME280;13153;52.316;21.166;2023-01-31T09:18:40;99799.16;;;8.78;51.66
34124;BME280;13153;52.316;21.166;2023-01-31T09:21:14;99810.59;;;8.82;51.26
34124;BME280;13153;52.316;21.166;2023-01-31T09:23:40;99812.41;;;8.84;51.39
34124;BME280;13153;52.316;21.166;2023-01-31T09:26:07;99802.94;;;8.91;51.40
34124;BME280;13153;52.316;21.166;2023-01-31T09:28:33;99820.56;;;8.97;51.89
34124;BME280;13153;52.316;21.166;2023-01-31T09:31:13;99808.25;;;8.92;51.67
34124;BME280;13153;52.316;21.166;2023-01-31T09:33:40;99809.00;;;8.88;51.42
34124;BME280;13153;52.316;21.166;2023-01-31T09:36:13;99813.34;;;8.86;51.59
34124;BME280;13153;52.316;21.166;2023-01-31T09:38:39;99809.81;;;8.86;51.64
34124;BME280;13153;52.316;21.166;2023-01-31T09:41:34;99820.34;;;8.87;51.69
34124;BME280;13153;52.316;21.166;2023-01-31T09:47:15;99817.78;;;8.89;51.37
34124;BME280;13153;52.316;21.166;2023-01-31T09:49:49;99830.69;;;8.81;50.98
34124;BME280;13153;52.316;21.166;2023-01-31T09:52:16;99828.97;;;8.82;51.31
34124;BME280;13153;52.316;21.166;2023-01-31T09:54:42;99821.00;;;8.79;51.17
34124;BME280;13153;52.316;21.166;2023-01-31T10:09:09;99827.31;;;8.85;51.09
34124;BME280;13153;52.316;21.166;2023-01-31T10:11:43;99823.63;;;8.79;50.67
34124;BME280;13153;52.316;21.166;2023-01-31T10:17:21;99828.00;;;8.78;50.53
34124;BME280;13153;52.316;21.166;2023-01-31T10:20:04;99834.81;;;8.72;50.64
34124;BME280;13153;52.316;21.166;2023-01-31T10:23:06;99832.28;;;8.75;50.80
34124;BME280;13153;52.316;21.166;2023-01-31T10:25:59;99832.28;;;8.75;50.61
34124;BME280;13153;52.316;21.166;2023-01-31T10:28:50;99832.47;;;8.82;50.82
34124;BME280;13153;52.316;21.166;2023-01-31T10:31:55;99834.47;;;8.92;50.09
34124;BME280;13153;52.316;21.166;2023-01-31T10:34:29;99824.81;;;8.91;49.55
34124;BME280;13153;52.316;21.166;2023-01-31T10:37:18;99826.59;;;8.92;50.06
34124;BME280;13153;52.316;21.166;2023-01-31T10:39:52;99833.66;;;8.95;49.53
34124;BME280;13153;52.316;21.166;2023-01-31T10:42:37;99825.63;;;8.89;50.34
34124;BME280;13153;52.316;21.166;2023-01-31T10:45:24;99830.19;;;8.96;49.74
34124;BME280;13153;52.316;21.166;2023-01-31T10:53:42;99825.97;;;9.03;50.13
34124;BME280;13153;52.316;21.166;2023-01-31T10:56:23;99823.47;;;9.07;49.50
34124;BME280;13153;52.316;21.166;2023-01-31T10:58:52;99815.59;;;9.07;49.59
34124;BME280;13153;52.316;21.166;2023-01-31T11:01:18;99819.75;;;8.99;49.06
34124;BME280;13153;52.316;21.166;2023-01-31T11:03:54;99817.28;;;9.05;49.06
34124;BME280;13153;52.316;21.166;2023-01-31T11:06:22;99808.25;;;8.92;49.88
34124;BME280;13153;52.316;21.166;2023-01-31T11:08:56;99813.53;;;8.94;49.38
34124;BME280;13153;52.316;21.166;2023-01-31T11:11:26;99820.53;;;8.95;49.87
34124;BME280;13153;52.316;21.166;2023-01-31T11:13:59;99819.47;;;8.87;49.83
34124;BME280;13153;52.316;21.166;2023-01-31T11:16:39;99820.44;;;8.90;49.01
34124;BME280;13153;52.316;21.166;2023-01-31T11:19:42;99827.25;;;8.84;49.81
34124;BME280;13153;52.316;21.166;2023-01-31T11:22:30;99825.56;;;8.86;49.68
34124;BME280;13153;52.316;21.166;2023-01-31T11:25:00;99830.88;;;8.89;49.69
34124;BME280;13153;52.316;21.166;2023-01-31T11:27:39;99839.78;;;8.96;49.56
34124;BME280;13153;52.316;21.166;2023-01-31T11:30:30;99838.97;;;8.98;48.57
34124;BME280;13153;52.316;21.166;2023-01-31T11:32:57;99837.13;;;8.94;48.49
34124;BME280;13153;52.316;21.166;2023-01-31T11:35:26;99840.78;;;9.01;48.63
34124;BME280;13153;52.316;21.166;2023-01-31T11:38:21;99837.50;;;9.09;48.57
34124;BME280;13153;52.316;21.166;2023-01-31T11:40:48;99834.94;;;9.12;48.25
34124;BME280;13153;52.316;21.166;2023-01-31T11:45:58;99837.50;;;9.09;48.52
34124;BME280;13153;52.316;21.166;2023-01-31T11:48:36;99831.88;;;8.94;47.75
34124;BME280;13153;52.316;21.166;2023-01-31T11:51:04;99835.44;;;8.96;47.43
34124;BME280;13153;52.316;21.166;2023-01-31T11:56:26;99824.88;;;8.93;47.64
34124;BME280;13153;52.316;21.166;2023-01-31T11:58:57;99838.84;;;8.92;47.60
34124;BME280;13153;52.316;21.166;2023-01-31T12:01:27;99838.09;;;8.98;47.58
34124;BME280;13153;52.316;21.166;2023-01-31T12:04:02;99839.13;;;9.04;46.68
34124;BME280;13153;52.316;21.166;2023-01-31T12:06:37;99826.25;;;9.15;47.08
34124;BME280;13153;52.316;21.166;2023-01-31T12:09:22;99827.31;;;9.24;46.97
34124;BME280;13153;52.316;21.166;2023-01-31T12:12:00;99823.81;;;9.22;47.53
34124;BME280;13153;52.316;21.166;2023-01-31T12:14:41;99827.41;;;9.27;47.41
34124;BME280;13153;52.316;21.166;2023-01-31T12:17:16;99816.91;;;9.27;46.69
34124;BME280;13153;52.316;21.166;2023-01-31T12:19:54;99817.72;;;9.23;46.11
34124;BME280;13153;52.316;21.166;2023-01-31T12:25:55;99815.13;;;9.26;46.78
34124;BME280;13153;52.316;21.166;2023-01-31T12:41:28;99798.13;;;9.09;46.35
34124;BME280;13153;52.316;21.166;2023-01-31T13:05:30;99803.06;;;9.35;44.97
34124;BME280;13153;52.316;21.166;2023-01-31T13:08:22;99794.31;;;9.36;44.50
34124;BME280;13153;52.316;21.166;2023-01-31T13:11:00;99794.09;;;9.25;43.75
34124;BME280;13153;52.316;21.166;2023-01-31T13:13:44;99788.84;;;9.25;43.51
34124;BME280;13153;52.316;21.166;2023-01-31T13:18:59;99787.06;;;9.22;43.50
34124;BME280;13153;52.316;21.166;2023-01-31T13:21:33;99787.09;;;9.24;44.00
34124;BME280;13153;52.316;21.166;2023-01-31T13:24:17;99773.03;;;9.20;44.40
34124;BME280;13153;52.316;21.166;2023-01-31T13:26:50;99771.81;;;9.06;43.79
34124;BME280;13153;52.316;21.166;2023-01-31T13:29:28;99763.81;;;9.00;44.37
34124;BME280;13153;52.316;21.166;2023-01-31T13:32:24;99782.63;;;8.82;44.04
34124;BME280;13153;52.316;21.166;2023-01-31T13:34:58;99774.03;;;8.88;44.76
34124;BME280;13153;52.316;21.166;2023-01-31T13:37:28;99768.06;;;8.95;44.80
34124;BME280;13153;52.316;21.166;2023-01-31T13:40:20;99763.81;;;9.00;44.83
34124;BME280;13153;52.316;21.166;2023-01-31T13:42:49;99769.97;;;9.02;43.86
34124;BME280;13153;52.316;21.166;2023-01-31T13:45:41;99761.41;;;9.09;44.68
34124;BME280;13153;52.316;21.166;2023-01-31T13:51:05;99771.19;;;9.16;43.54
34124;BME280;13153;52.316;21.166;2023-01-31T13:53:44;99759.72;;;9.13;43.44
34124;BME280;13153;52.316;21.166;2023-01-31T13:56:23;99768.34;;;9.07;43.93
34124;BME280;13153;52.316;21.166;2023-01-31T13:58:51;99775.28;;;9.04;44.13
34124;BME280;13153;52.316;21.166;2023-01-31T14:01:25;99786.69;;;9.06;44.57
34124;BME280;13153;52.316;21.166;2023-01-31T14:09:33;99774.16;;;8.94;44.37
34124;BME280;13153;52.316;21.166;2023-01-31T14:14:47;99793.16;;;8.84;45.60
34124;BME280;13153;52.316;21.166;2023-01-31T14:40:34;99782.56;;;8.43;46.22
34124;BME280;13153;52.316;21.166;2023-01-31T14:49:04;99788.16;;;8.24;46.85
34124;BME280;13153;52.316;21.166;2023-01-31T14:52:08;99776.81;;;8.25;46.75
34124;BME280;13153;52.316;21.166;2023-01-31T14:57:53;99770.50;;;8.17;46.97
34124;BME280;13153;52.316;21.166;2023-01-31T15:00:31;99765.25;;;8.17;47.48
34124;BME280;13153;52.316;21.166;2023-01-31T15:03:33;99768.00;;;8.21;45.99
34124;BME280;13153;52.316;21.166;2023-01-31T15:06:11;99767.91;;;8.18;46.58
34124;BME280;13153;52.316;21.166;2023-01-31T15:08:47;99763.63;;;8.22;46.94
34124;BME280;13153;52.316;21.166;2023-01-31T15:13:53;99757.38;;;8.17;47.10
34124;BME280;13153;52.316;21.166;2023-01-31T15:16:35;99755.63;;;8.16;47.12
34124;BME280;13153;52.316;21.166;2023-01-31T15:19:19;99764.53;;;8.22;47.09
34124;BME280;13153;52.316;21.166;2023-01-31T15:21:53;99760.94;;;8.19;46.57
34124;BME280;13153;52.316;21.166;2023-01-31T15:24:45;99759.19;;;8.19;47.32
34124;BME280;13153;52.316;21.166;2023-01-31T15:27:25;99757.47;;;8.20;46.67
34124;BME280;13153;52.316;21.166;2023-01-31T15:30:14;99758.41;;;8.22;46.72
34124;BME280;13153;52.316;21.166;2023-01-31T15:32:56;99756.38;;;8.12;47.30
34124;BME280;13153;52.316;21.166;2023-01-31T15:35:33;99764.31;;;8.15;46.74
34124;BME280;13153;52.316;21.166;2023-01-31T15:38:32;99756.47;;;8.15;46.66
34124;BME280;13153;52.316;21.166;2023-01-31T15:41:20;99762.63;;;8.17;47.56
34124;BME280;13153;52.316;21.166;2023-01-31T15:43:53;99762.38;;;8.06;46.56
34124;BME280;13153;52.316;21.166;2023-01-31T15:48:48;99757.94;;;8.04;47.40